createdAt,value
2019-05-11T00:00:56.915Z,10.40
2019-05-11T00:01:57.064Z,10.39
2019-05-11T00:02:57.212Z,10.42
2019-05-11T00:03:57.362Z,10.37
2019-05-11T00:04:57.508Z,10.36
2019-05-11T00:05:57.656Z,10.34
2019-05-11T00:06:57.803Z,10.39
2019-05-11T00:07:57.951Z,10.39
2019-05-11T00:08:58.104Z,10.43
2019-05-11T00:09:58.709Z,10.32
2019-05-11T00:10:58.398Z,10.37
2019-05-11T00:11:58.542Z,10.42
2019-05-11T00:12:58.693Z,10.39
2019-05-11T00:13:58.836Z,10.32
2019-05-11T00:14:58.985Z,10.37
2019-05-11T00:15:59.134Z,10.52
2019-05-11T00:16:59.280Z,10.58
2019-05-11T00:17:59.442Z,10.65
2019-05-11T00:18:59.574Z,10.65
2019-05-11T00:19:59.733Z,10.66
2019-05-11T00:20:59.879Z,10.74
2019-05-11T00:22:00.018Z,10.56
2019-05-11T00:23:00.166Z,10.51
2019-05-11T00:24:00.313Z,10.53
2019-05-11T00:25:00.462Z,10.52
2019-05-11T00:26:00.610Z,10.51
2019-05-11T00:27:00.755Z,10.47
2019-05-11T00:28:00.938Z,10.44
2019-05-11T00:29:01.055Z,10.42
2019-05-11T00:30:01.203Z,10.37
2019-05-11T00:31:01.349Z,10.22
2019-05-11T00:32:01.499Z,10.22
2019-05-11T00:33:01.647Z,10.28
2019-05-11T00:34:01.797Z,10.17
2019-05-11T00:35:01.943Z,10.18
2019-05-11T00:36:02.091Z,10.10
2019-05-11T00:37:02.239Z,10.12
2019-05-11T00:38:02.383Z,10.21
2019-05-11T00:39:02.543Z,10.25
2019-05-11T00:40:13.902Z,10.26
2019-05-11T00:41:02.825Z,10.34
2019-05-11T00:42:02.997Z,10.34
2019-05-11T00:43:03.121Z,10.37
2019-05-11T00:44:03.270Z,10.40
2019-05-11T00:45:03.420Z,10.37
2019-05-11T00:46:03.564Z,10.28
2019-05-11T00:47:03.710Z,10.39
2019-05-11T00:48:03.860Z,10.26
2019-05-11T00:49:04.011Z,10.42
2019-05-11T00:50:04.157Z,10.30
2019-05-11T00:51:04.307Z,10.34
2019-05-11T00:52:04.451Z,10.22
2019-05-11T00:53:04.597Z,10.22
2019-05-11T00:54:04.748Z,10.22
2019-05-11T00:55:04.893Z,10.24
2019-05-11T00:56:05.042Z,10.19
2019-05-11T00:57:05.189Z,10.19
2019-05-11T00:58:05.340Z,10.22
2019-05-11T00:59:19.813Z,10.26
2019-05-11T01:00:05.634Z,10.24
2019-05-11T01:01:05.793Z,10.22
2019-05-11T01:02:05.927Z,10.26
2019-05-11T01:03:06.074Z,10.34
2019-05-11T01:04:06.246Z,10.32
2019-05-11T01:05:06.370Z,10.28
2019-05-11T01:06:06.519Z,10.22
2019-05-11T01:07:06.684Z,10.32
2019-05-11T01:08:06.819Z,10.25
2019-05-11T01:09:06.967Z,10.33
2019-05-11T01:10:21.740Z,10.30
2019-05-11T01:11:07.263Z,10.37
2019-05-11T01:12:07.412Z,10.42
2019-05-11T01:13:07.559Z,10.32
2019-05-11T01:14:07.707Z,10.43
2019-05-11T01:15:07.854Z,10.34
2019-05-11T01:16:08.004Z,10.39
2019-05-11T01:17:08.152Z,10.44
2019-05-11T01:18:08.300Z,10.42
2019-05-11T01:19:08.446Z,10.47
2019-05-11T01:20:08.659Z,10.55
2019-05-11T01:21:08.744Z,10.55
2019-05-11T01:22:08.903Z,10.55
2019-05-11T01:23:09.043Z,10.51
2019-05-11T01:24:09.246Z,10.52
2019-05-11T01:25:09.333Z,10.55
2019-05-11T01:26:09.479Z,10.40
2019-05-11T01:27:09.630Z,10.40
2019-05-11T01:28:09.780Z,10.24
2019-05-11T01:29:09.922Z,10.26
2019-05-11T01:30:10.071Z,10.22
2019-05-11T01:31:10.218Z,10.22
2019-05-11T01:32:10.366Z,10.19
2019-05-11T01:33:10.513Z,10.10
2019-05-11T01:34:10.659Z,10.24
2019-05-11T01:35:10.808Z,10.24
2019-05-11T01:36:10.955Z,10.22
2019-05-11T01:37:11.104Z,10.34
2019-05-11T01:38:11.248Z,10.44
2019-05-11T01:39:11.436Z,10.56
2019-05-11T01:40:11.542Z,10.55
2019-05-11T01:41:11.687Z,10.58
2019-05-11T01:42:11.833Z,10.66
2019-05-11T01:43:11.981Z,10.66
2019-05-11T01:44:12.128Z,10.56
2019-05-11T01:45:12.276Z,10.51
2019-05-11T01:46:12.425Z,10.56
2019-05-11T01:47:12.572Z,10.40
2019-05-11T01:48:12.719Z,10.55
2019-05-11T01:49:12.864Z,10.58
2019-05-11T01:50:13.012Z,10.51
2019-05-11T01:51:13.160Z,10.52
2019-05-11T01:52:13.307Z,10.51
2019-05-11T01:53:13.455Z,10.70
2019-05-11T01:54:13.605Z,10.65
2019-05-11T01:55:13.751Z,10.47
2019-05-11T01:56:13.902Z,10.52
2019-05-11T01:57:14.048Z,10.47
2019-05-11T01:58:14.196Z,10.58
2019-05-11T01:59:14.343Z,10.62
2019-05-11T02:00:14.490Z,10.55
2019-05-11T02:01:14.672Z,10.42
2019-05-11T02:02:14.785Z,10.39
2019-05-11T02:03:14.930Z,10.28
2019-05-11T02:04:15.078Z,10.15
2019-05-11T02:05:15.224Z,10.00
2019-05-11T02:06:15.373Z,10.09
2019-05-11T02:07:15.522Z,10.00
2019-05-11T02:08:15.670Z,10.06
2019-05-11T02:09:15.816Z,10.12
2019-05-11T02:10:15.963Z,10.00
2019-05-11T02:11:16.362Z,10.10
2019-05-11T02:12:16.248Z,10.17
2019-05-11T02:13:16.402Z,10.09
2019-05-11T02:14:16.544Z,10.12
2019-05-11T02:15:16.693Z,10.09
2019-05-11T02:16:16.842Z,10.12
2019-05-11T02:17:16.998Z,10.06
2019-05-11T02:18:17.144Z,10.09
2019-05-11T02:19:17.292Z,10.14
2019-05-11T02:20:17.439Z,10.18
2019-05-11T02:21:17.591Z,10.22
2019-05-11T02:22:17.736Z,10.19
2019-05-11T02:23:17.883Z,10.32
2019-05-11T02:24:18.029Z,10.30
2019-05-11T02:25:18.180Z,10.28
2019-05-11T02:26:18.330Z,10.32
2019-05-11T02:27:18.475Z,10.37
2019-05-11T02:28:18.624Z,10.28
2019-05-11T02:29:18.776Z,10.21
2019-05-11T02:30:18.919Z,10.17
2019-05-11T02:31:19.069Z,10.14
2019-05-11T02:32:19.215Z,10.04
2019-05-11T02:33:19.362Z,10.25
2019-05-11T02:34:19.512Z,10.21
2019-05-11T02:35:19.661Z,10.19
2019-05-11T02:36:19.805Z,10.28
2019-05-11T02:37:19.953Z,10.28
2019-05-11T02:38:20.102Z,10.28
2019-05-11T02:39:20.249Z,10.26
2019-05-11T02:40:20.396Z,10.19
2019-05-11T02:41:35.700Z,10.10
2019-05-11T02:42:20.696Z,10.24
2019-05-11T02:43:20.845Z,10.28
2019-05-11T02:44:20.993Z,10.40
2019-05-11T02:45:21.140Z,10.36
2019-05-11T02:46:21.286Z,10.36
2019-05-11T02:47:21.436Z,10.51
2019-05-11T02:48:21.580Z,10.55
2019-05-11T02:49:21.728Z,10.51
2019-05-11T02:50:21.879Z,10.52
2019-05-11T02:51:22.024Z,10.53
2019-05-11T02:52:22.171Z,10.37
2019-05-11T02:53:22.320Z,10.30
2019-05-11T02:54:22.470Z,10.33
2019-05-11T02:55:22.620Z,10.37
2019-05-11T02:56:22.763Z,10.32
2019-05-11T02:57:22.913Z,10.42
2019-05-11T02:58:23.057Z,10.42
2019-05-11T02:59:23.204Z,10.34
2019-05-11T03:00:23.353Z,10.46
2019-05-11T03:01:23.501Z,10.26
2019-05-11T03:02:23.652Z,10.34
2019-05-11T03:03:23.793Z,10.40
2019-05-11T03:04:23.944Z,10.37
2019-05-11T03:05:24.092Z,10.34
2019-05-11T03:06:24.259Z,10.18
2019-05-11T03:07:24.388Z,10.28
2019-05-11T03:08:24.536Z,10.36
2019-05-11T03:09:24.682Z,10.28
2019-05-11T03:10:24.829Z,10.34
2019-05-11T03:11:24.980Z,10.26
2019-05-11T03:12:25.127Z,10.42
2019-05-11T03:13:25.281Z,10.40
2019-05-11T03:14:25.425Z,10.26
2019-05-11T03:15:25.573Z,10.32
2019-05-11T03:16:25.726Z,10.36
2019-05-11T03:17:25.868Z,10.39
2019-05-11T03:18:26.019Z,10.37
2019-05-11T03:19:26.168Z,10.42
2019-05-11T03:20:26.313Z,10.28
2019-05-11T03:21:26.464Z,10.28
2019-05-11T03:22:26.615Z,10.33
2019-05-11T03:23:26.756Z,10.25
2019-05-11T03:24:26.902Z,10.21
2019-05-11T03:25:27.060Z,10.15
2019-05-11T03:26:27.205Z,10.22
2019-05-11T03:27:27.350Z,10.26
2019-05-11T03:28:27.497Z,10.21
2019-05-11T03:29:27.646Z,10.24
2019-05-11T03:30:27.921Z,10.12
2019-05-11T03:31:27.955Z,10.19
2019-05-11T03:32:28.105Z,10.17
2019-05-11T03:33:28.251Z,10.22
2019-05-11T03:34:28.391Z,10.26
2019-05-11T03:35:28.599Z,10.17
2019-05-11T03:36:28.683Z,10.07
2019-05-11T03:37:28.832Z,10.10
2019-05-11T03:38:28.979Z,10.03
2019-05-11T03:39:29.127Z,10.01
2019-05-11T03:40:29.278Z,10.00
2019-05-11T03:41:29.424Z,9.97
2019-05-11T03:42:29.574Z,10.00
2019-05-11T03:43:29.723Z,10.01
2019-05-11T03:44:29.870Z,10.04
2019-05-11T03:45:30.018Z,10.15
2019-05-11T03:46:30.166Z,10.12
2019-05-11T03:47:30.315Z,10.17
2019-05-11T03:48:30.464Z,10.12
2019-05-11T03:49:30.612Z,10.00
2019-05-11T03:50:30.760Z,10.09
2019-05-11T03:51:30.911Z,10.04
2019-05-11T03:52:31.059Z,10.04
2019-05-11T03:53:31.205Z,9.99
2019-05-11T03:54:31.353Z,10.00
2019-05-11T03:55:31.502Z,10.09
2019-05-11T03:56:31.648Z,9.88
2019-05-11T03:57:31.799Z,10.10
2019-05-11T03:58:31.949Z,9.99
2019-05-11T03:59:32.094Z,10.01
2019-05-11T04:00:32.246Z,10.03
2019-05-11T04:01:32.390Z,9.96
2019-05-11T04:02:32.539Z,10.01
2019-05-11T04:03:32.687Z,10.06
2019-05-11T04:04:32.846Z,10.04
2019-05-11T04:05:32.984Z,9.94
2019-05-11T04:06:33.136Z,10.07
2019-05-11T04:07:33.283Z,10.10
2019-05-11T04:08:33.436Z,10.00
2019-05-11T04:09:33.589Z,9.94
2019-05-11T04:10:33.727Z,9.97
2019-05-11T04:11:33.874Z,9.91
2019-05-11T04:12:35.595Z,9.89
2019-05-11T04:13:34.172Z,9.86
2019-05-11T04:14:34.330Z,9.78
2019-05-11T04:15:34.475Z,9.73
2019-05-11T04:16:34.616Z,9.83
2019-05-11T04:17:34.764Z,9.86
2019-05-11T04:18:34.913Z,9.81
2019-05-11T04:19:35.063Z,9.91
2019-05-11T04:20:35.211Z,9.82
2019-05-11T04:21:35.367Z,9.85
2019-05-11T04:22:35.509Z,9.70
2019-05-11T04:23:35.654Z,9.86
2019-05-11T04:24:35.802Z,9.91
2019-05-11T04:25:35.954Z,9.88
2019-05-11T04:26:36.099Z,9.89
2019-05-11T04:27:36.244Z,9.81
2019-05-11T04:28:36.391Z,9.79
2019-05-11T04:29:36.541Z,9.85
2019-05-11T04:30:36.748Z,9.82
2019-05-11T04:31:36.835Z,9.71
2019-05-11T04:32:36.982Z,9.78
2019-05-11T04:33:37.128Z,9.71
2019-05-11T04:34:37.278Z,9.81
2019-05-11T04:35:37.426Z,9.73
2019-05-11T04:36:37.578Z,9.88
2019-05-11T04:37:37.721Z,9.78
2019-05-11T04:38:37.896Z,9.78
2019-05-11T04:39:38.018Z,9.75
2019-05-11T04:40:38.167Z,9.78
2019-05-11T04:41:38.313Z,9.70
2019-05-11T04:42:54.178Z,9.70
2019-05-11T04:43:38.580Z,9.68
2019-05-11T04:44:38.732Z,9.70
2019-05-11T04:45:38.881Z,9.70
2019-05-11T04:46:39.021Z,9.64
2019-05-11T04:47:39.173Z,9.71
2019-05-11T04:48:39.318Z,9.68
2019-05-11T04:49:39.467Z,9.81
2019-05-11T04:50:39.619Z,9.67
2019-05-11T04:51:39.758Z,9.76
2019-05-11T04:52:39.917Z,9.75
2019-05-11T04:53:40.054Z,9.73
2019-05-11T04:54:40.246Z,9.75
2019-05-11T04:55:40.350Z,9.75
2019-05-11T04:56:40.499Z,9.68
2019-05-11T04:57:40.647Z,9.60
2019-05-11T04:58:40.794Z,9.60
2019-05-11T04:59:40.941Z,9.58
2019-05-11T05:00:41.089Z,9.53
2019-05-11T05:01:41.236Z,9.61
2019-05-11T05:02:41.383Z,9.60
2019-05-11T05:03:47.213Z,9.57
2019-05-11T05:04:41.676Z,9.67
2019-05-11T05:05:41.823Z,9.61
2019-05-11T05:06:41.971Z,9.66
2019-05-11T05:07:47.632Z,9.66
2019-05-11T05:08:42.264Z,9.66
2019-05-11T05:09:44.682Z,9.68
2019-05-11T05:10:42.561Z,9.67
2019-05-11T05:11:42.707Z,9.71
2019-05-11T05:12:50.471Z,9.76
2019-05-11T05:13:43.001Z,9.70
2019-05-11T05:14:43.145Z,9.71
2019-05-11T05:15:43.294Z,9.75
2019-05-11T05:16:43.445Z,9.73
2019-05-11T05:17:43.593Z,9.78
2019-05-11T05:18:43.739Z,9.82
2019-05-11T05:19:43.887Z,9.83
2019-05-11T05:20:44.162Z,10.00
2019-05-11T05:21:44.180Z,10.00
2019-05-11T05:22:44.333Z,9.88
2019-05-11T05:23:44.479Z,10.09
2019-05-11T05:24:44.624Z,9.99
2019-05-11T05:25:44.776Z,9.96
2019-05-11T05:26:44.920Z,10.01
2019-05-11T05:27:45.071Z,9.93
2019-05-11T05:28:45.799Z,10.00
2019-05-11T05:29:45.362Z,10.03
2019-05-11T05:30:45.512Z,9.93
2019-05-11T05:31:45.659Z,9.96
2019-05-11T05:32:45.806Z,10.07
2019-05-11T05:33:45.954Z,10.03
2019-05-11T05:34:46.105Z,10.09
2019-05-11T05:35:46.250Z,9.89
2019-05-11T05:36:46.399Z,9.96
2019-05-11T05:37:46.616Z,9.97
2019-05-11T05:38:46.703Z,9.96
2019-05-11T05:39:46.853Z,9.96
2019-05-11T05:40:47.003Z,10.03
2019-05-11T05:41:56.598Z,10.06
2019-05-11T05:42:47.297Z,10.03
2019-05-11T05:43:47.458Z,10.04
2019-05-11T05:44:47.592Z,10.03
2019-05-11T05:45:47.740Z,10.04
2019-05-11T05:46:47.892Z,10.09
2019-05-11T05:47:48.036Z,10.01
2019-05-11T05:48:48.187Z,10.01
2019-05-11T05:49:48.338Z,10.03
2019-05-11T05:50:48.483Z,10.01
2019-05-11T05:51:48.630Z,9.94
2019-05-11T05:52:48.785Z,10.03
2019-05-11T05:53:48.926Z,9.83
2019-05-11T05:54:49.074Z,9.91
2019-05-11T05:55:49.223Z,9.96
2019-05-11T05:56:49.373Z,9.88
2019-05-11T05:57:49.526Z,9.91
2019-05-11T05:58:49.670Z,9.86
2019-05-11T05:59:49.827Z,9.93
2019-05-11T06:00:49.964Z,9.93
2019-05-11T06:01:50.113Z,9.88
2019-05-11T06:02:50.261Z,9.86
2019-05-11T06:03:50.409Z,9.85
2019-05-11T06:04:50.557Z,9.85
2019-05-11T06:05:50.705Z,9.86
2019-05-11T06:06:50.853Z,9.94
2019-05-11T06:07:51.004Z,9.93
2019-05-11T06:08:51.154Z,9.93
2019-05-11T06:09:51.301Z,9.86
2019-05-11T06:10:51.473Z,9.97
2019-05-11T06:11:51.612Z,9.93
2019-05-11T06:12:51.768Z,9.94
2019-05-11T06:13:51.914Z,9.96
2019-05-11T06:14:52.055Z,10.01
2019-05-11T06:15:52.202Z,10.09
2019-05-11T06:16:52.349Z,10.12
2019-05-11T06:17:52.496Z,10.06
2019-05-11T06:18:52.647Z,10.03
2019-05-11T06:19:52.795Z,10.00
2019-05-11T06:20:52.941Z,10.00
2019-05-11T06:21:53.122Z,10.06
2019-05-11T06:22:53.284Z,10.07
2019-05-11T06:23:53.390Z,10.01
2019-05-11T06:24:53.534Z,10.09
2019-05-11T06:25:53.687Z,10.10
2019-05-11T06:26:53.826Z,10.01
2019-05-11T06:27:53.977Z,10.10
2019-05-11T06:28:54.185Z,10.12
2019-05-11T06:29:54.269Z,10.12
2019-05-11T06:30:54.419Z,10.32
2019-05-11T06:31:54.568Z,10.28
2019-05-11T06:32:54.716Z,10.34
2019-05-11T06:33:54.864Z,10.39
2019-05-11T06:34:55.012Z,10.25
2019-05-11T06:35:55.161Z,10.26
2019-05-11T06:36:55.306Z,10.25
2019-05-11T06:37:55.454Z,10.30
2019-05-11T06:38:55.603Z,10.25
2019-05-11T06:39:55.751Z,10.36
2019-05-11T06:40:55.899Z,10.25
2019-05-11T06:41:56.046Z,10.28
2019-05-11T06:42:56.194Z,10.37
2019-05-11T06:44:01.673Z,10.40
2019-05-11T06:44:56.489Z,10.37
2019-05-11T06:45:56.643Z,10.33
2019-05-11T06:46:56.804Z,10.42
2019-05-11T06:47:56.930Z,10.59
2019-05-11T06:48:57.080Z,10.42
2019-05-11T06:49:57.228Z,10.43
2019-05-11T06:50:57.377Z,10.44
2019-05-11T06:51:57.526Z,10.44
2019-05-11T06:52:57.678Z,10.44
2019-05-11T06:53:57.822Z,10.55
2019-05-11T06:54:57.975Z,10.46
2019-05-11T06:55:58.117Z,10.51
2019-05-11T06:56:58.277Z,10.44
2019-05-11T06:57:58.422Z,10.26
2019-05-11T06:58:58.555Z,10.32
2019-05-11T06:59:58.704Z,10.34
2019-05-11T07:00:58.848Z,10.40
2019-05-11T07:01:58.993Z,10.37
2019-05-11T07:02:59.146Z,10.47
2019-05-11T07:03:59.295Z,10.46
2019-05-11T07:04:59.446Z,10.44
2019-05-11T07:05:59.580Z,10.40
2019-05-11T07:06:59.738Z,10.52
2019-05-11T07:07:59.882Z,10.53
2019-05-11T07:09:00.030Z,10.51
2019-05-11T07:10:00.179Z,10.51
2019-05-11T07:11:00.328Z,10.53
2019-05-11T07:12:00.543Z,10.47
2019-05-11T07:13:00.621Z,10.52
2019-05-11T07:14:18.725Z,10.55
2019-05-11T07:15:00.925Z,10.55
2019-05-11T07:16:01.067Z,10.59
2019-05-11T07:17:01.222Z,10.58
2019-05-11T07:18:01.362Z,10.53
2019-05-11T07:19:01.509Z,10.65
2019-05-11T07:20:02.052Z,10.56
2019-05-11T07:21:01.821Z,10.43
2019-05-11T07:22:01.968Z,10.70
2019-05-11T07:23:02.117Z,10.58
2019-05-11T07:24:02.265Z,10.70
2019-05-11T07:25:02.414Z,10.60
2019-05-11T07:26:02.563Z,10.58
2019-05-11T07:27:02.711Z,10.63
2019-05-11T07:28:02.897Z,10.66
2019-05-11T07:29:03.010Z,10.65
2019-05-11T07:30:03.158Z,10.70
2019-05-11T07:31:03.305Z,10.59
2019-05-11T07:32:09.895Z,10.53
2019-05-11T07:33:03.602Z,10.43
2019-05-11T07:34:03.757Z,10.44
2019-05-11T07:35:03.909Z,10.58
2019-05-11T07:36:04.056Z,10.62
2019-05-11T07:37:04.203Z,10.55
2019-05-11T07:38:04.350Z,10.62
2019-05-11T07:39:04.498Z,10.53
2019-05-11T07:40:04.645Z,10.53
2019-05-11T07:41:04.792Z,10.56
2019-05-11T07:42:04.941Z,10.60
2019-05-11T07:43:09.022Z,10.51
2019-05-11T07:44:05.243Z,10.53
2019-05-11T07:45:05.391Z,10.73
2019-05-11T07:46:07.637Z,10.60
2019-05-11T07:47:07.817Z,10.60
2019-05-11T07:48:07.925Z,10.55
2019-05-11T07:49:08.570Z,10.59
2019-05-11T07:50:08.215Z,10.58
2019-05-11T07:51:08.743Z,10.56
2019-05-11T07:52:07.770Z,10.62
2019-05-11T07:53:08.178Z,10.59
2019-05-11T07:54:08.422Z,10.65
2019-05-11T07:55:08.573Z,10.52
2019-05-11T07:56:08.259Z,10.60
2019-05-11T07:57:07.877Z,10.63
2019-05-11T07:58:08.029Z,10.66
2019-05-11T07:59:08.050Z,10.74
2019-05-11T08:00:08.149Z,10.76
2019-05-11T08:01:08.655Z,10.98
2019-05-11T08:02:08.860Z,11.03
2019-05-11T08:03:08.986Z,10.95
2019-05-11T08:04:08.213Z,11.14
2019-05-11T08:05:08.791Z,11.17
2019-05-11T08:06:09.036Z,11.24
2019-05-11T08:07:08.659Z,11.25
2019-05-11T08:08:08.874Z,11.27
2019-05-11T08:09:08.957Z,11.21
2019-05-11T08:10:09.103Z,11.41
2019-05-11T08:11:09.253Z,11.43
2019-05-11T08:12:09.407Z,11.50
2019-05-11T08:13:09.550Z,11.57
2019-05-11T08:14:09.700Z,11.71
2019-05-11T08:15:13.392Z,11.61
2019-05-11T08:16:09.997Z,11.43
2019-05-11T08:17:10.148Z,11.41
2019-05-11T08:18:10.299Z,11.27
2019-05-11T08:19:10.885Z,11.14
2019-05-11T08:20:10.597Z,11.25
2019-05-11T08:21:10.747Z,11.16
2019-05-11T08:22:10.897Z,11.17
2019-05-11T08:23:11.044Z,11.02
2019-05-11T08:24:11.193Z,11.13
2019-05-11T08:25:11.345Z,11.16
2019-05-11T08:26:11.495Z,11.20
2019-05-11T08:27:11.648Z,11.34
2019-05-11T08:28:12.266Z,11.41
2019-05-11T08:29:11.940Z,11.20
2019-05-11T08:30:12.089Z,11.27
2019-05-11T08:31:12.239Z,11.31
2019-05-11T08:32:12.387Z,11.43
2019-05-11T08:33:12.535Z,11.54
2019-05-11T08:34:12.684Z,11.72
2019-05-11T08:35:12.834Z,11.82
2019-05-11T08:36:12.983Z,11.83
2019-05-11T08:37:13.129Z,11.85
2019-05-11T08:38:13.274Z,11.65
2019-05-11T08:39:13.433Z,11.52
2019-05-11T08:40:13.578Z,11.61
2019-05-11T08:41:13.729Z,11.54
2019-05-11T08:42:13.883Z,11.62
2019-05-11T08:43:14.031Z,11.53
2019-05-11T08:44:14.176Z,11.50
2019-05-11T08:45:20.215Z,11.47
2019-05-11T08:46:14.473Z,11.49
2019-05-11T08:47:14.622Z,11.38
2019-05-11T08:48:14.772Z,11.39
2019-05-11T08:49:15.791Z,11.36
2019-05-11T08:50:15.608Z,11.35
2019-05-11T08:51:15.226Z,11.35
2019-05-11T08:52:15.375Z,11.49
2019-05-11T08:53:17.697Z,11.49
2019-05-11T08:54:18.108Z,11.38
2019-05-11T08:55:15.826Z,11.47
2019-05-11T08:56:15.978Z,11.52
2019-05-11T08:57:18.007Z,11.36
2019-05-11T08:58:19.259Z,11.44
2019-05-11T08:59:18.456Z,11.56
2019-05-11T09:00:17.910Z,11.44
2019-05-11T09:01:18.422Z,11.50
2019-05-11T09:02:18.638Z,11.27
2019-05-11T09:03:17.925Z,11.14
2019-05-11T09:04:18.285Z,11.17
2019-05-11T09:05:18.789Z,11.29
2019-05-11T09:06:18.070Z,11.29
2019-05-11T09:07:18.468Z,11.31
2019-05-11T09:08:18.800Z,11.13
2019-05-11T09:09:18.202Z,11.03
2019-05-11T09:10:18.746Z,11.10
2019-05-11T09:11:19.008Z,11.07
2019-05-11T09:12:18.459Z,11.20
2019-05-11T09:13:18.703Z,11.02
2019-05-11T09:14:19.007Z,11.07
2019-05-11T09:15:32.742Z,10.99
2019-05-11T09:16:19.274Z,10.95
2019-05-11T09:17:19.108Z,10.92
2019-05-11T09:18:19.257Z,10.86
2019-05-11T09:19:19.407Z,10.86
2019-05-11T09:20:19.557Z,10.95
2019-05-11T09:21:19.705Z,10.98
2019-05-11T09:22:19.855Z,11.02
2019-05-11T09:23:33.630Z,11.01
2019-05-11T09:24:20.151Z,10.94
2019-05-11T09:25:20.299Z,10.92
2019-05-11T09:26:20.449Z,10.91
2019-05-11T09:27:20.598Z,10.91
2019-05-11T09:28:20.745Z,10.94
2019-05-11T09:29:20.894Z,10.83
2019-05-11T09:30:21.045Z,10.73
2019-05-11T09:31:21.190Z,10.91
2019-05-11T09:32:21.339Z,11.01
2019-05-11T09:33:21.488Z,11.06
2019-05-11T09:34:21.635Z,11.01
2019-05-11T09:35:21.785Z,10.86
2019-05-11T09:36:22.007Z,10.86
2019-05-11T09:37:23.770Z,10.92
2019-05-11T09:38:22.169Z,10.96
2019-05-11T09:39:22.320Z,10.98
2019-05-11T09:40:22.468Z,10.91
2019-05-11T09:41:22.615Z,11.06
2019-05-11T09:42:22.763Z,11.14
2019-05-11T09:43:22.914Z,11.20
2019-05-11T09:44:23.061Z,11.25
2019-05-11T09:45:23.210Z,11.17
2019-05-11T09:46:23.360Z,11.24
2019-05-11T09:47:23.508Z,11.31
2019-05-11T09:48:23.663Z,11.20
2019-05-11T09:49:23.816Z,11.36
2019-05-11T09:50:23.966Z,11.41
2019-05-11T09:51:24.111Z,11.44
2019-05-11T09:52:24.261Z,11.50
2019-05-11T09:53:24.414Z,11.52
2019-05-11T09:54:24.565Z,11.59
2019-05-11T09:55:24.713Z,11.65
2019-05-11T09:56:24.859Z,11.59
2019-05-11T09:57:25.009Z,11.44
2019-05-11T09:58:25.157Z,11.52
2019-05-11T09:59:25.306Z,11.47
2019-05-11T10:00:25.454Z,11.49
2019-05-11T10:01:25.611Z,11.52
2019-05-11T10:02:27.917Z,11.57
2019-05-11T10:03:27.995Z,11.64
2019-05-11T10:04:28.597Z,11.71
2019-05-11T10:05:28.432Z,11.64
2019-05-11T10:06:28.193Z,11.71
2019-05-11T10:07:28.490Z,11.64
2019-05-11T10:08:28.615Z,11.68
2019-05-11T10:09:28.069Z,11.96
2019-05-11T10:10:28.924Z,11.83
2019-05-11T10:11:28.279Z,11.83
2019-05-11T10:12:28.566Z,11.99
2019-05-11T10:13:27.927Z,12.09
2019-05-11T10:14:28.799Z,11.89
2019-05-11T10:15:28.037Z,11.80
2019-05-11T10:16:28.170Z,11.74
2019-05-11T10:17:28.792Z,11.83
2019-05-11T10:18:28.358Z,11.80
2019-05-11T10:19:28.598Z,11.64
2019-05-11T10:20:28.769Z,11.64
2019-05-11T10:21:28.602Z,11.68
2019-05-11T10:22:28.752Z,11.78
2019-05-11T10:23:28.902Z,11.80
2019-05-11T10:24:29.062Z,11.77
2019-05-11T10:25:29.215Z,11.89
2019-05-11T10:26:29.368Z,11.68
2019-05-11T10:27:29.518Z,11.82
2019-05-11T10:28:29.664Z,11.72
2019-05-11T10:29:29.815Z,11.77
2019-05-11T10:30:29.974Z,11.67
2019-05-11T10:31:30.122Z,11.82
2019-05-11T10:32:30.274Z,11.85
2019-05-11T10:33:30.418Z,11.87
2019-05-11T10:34:30.572Z,11.96
2019-05-11T10:35:30.720Z,11.96
2019-05-11T10:36:30.867Z,11.97
2019-05-11T10:37:31.022Z,11.94
2019-05-11T10:38:31.196Z,12.02
2019-05-11T10:39:31.396Z,11.89
2019-05-11T10:40:31.550Z,12.02
2019-05-11T10:41:31.698Z,11.96
2019-05-11T10:42:31.845Z,11.99
2019-05-11T10:43:31.992Z,12.04
2019-05-11T10:44:32.139Z,12.11
2019-05-11T10:45:32.291Z,11.99
2019-05-11T10:46:32.441Z,12.08
2019-05-11T10:47:32.589Z,12.09
2019-05-11T10:48:32.745Z,12.13
2019-05-11T10:49:32.892Z,12.13
2019-05-11T10:50:33.049Z,12.06
2019-05-11T10:51:33.190Z,11.80
2019-05-11T10:52:33.351Z,11.74
2019-05-11T10:53:33.498Z,11.75
2019-05-11T10:54:33.688Z,11.77
2019-05-11T10:55:33.849Z,11.72
2019-05-11T10:56:33.999Z,11.67
2019-05-11T10:57:34.148Z,11.59
2019-05-11T10:58:34.302Z,11.57
2019-05-11T10:59:34.454Z,11.54
2019-05-11T11:00:34.608Z,11.46
2019-05-11T11:01:34.754Z,11.50
2019-05-11T11:02:34.914Z,11.46
2019-05-11T11:03:35.077Z,11.46
2019-05-11T11:04:35.227Z,11.50
2019-05-11T11:05:35.396Z,11.46
2019-05-11T11:06:35.536Z,11.47
2019-05-11T11:07:38.130Z,11.59
2019-05-11T11:08:38.132Z,11.49
2019-05-11T11:09:38.457Z,11.38
2019-05-11T11:10:37.851Z,11.39
2019-05-11T11:11:38.240Z,11.44
2019-05-11T11:12:38.544Z,11.32
2019-05-11T11:13:38.519Z,11.36
2019-05-11T11:14:37.720Z,11.36
2019-05-11T11:15:38.073Z,11.34
2019-05-11T11:16:42.421Z,11.32
2019-05-11T11:17:38.227Z,11.36
2019-05-11T11:18:38.114Z,11.32
2019-05-11T11:19:38.076Z,11.36
2019-05-11T11:20:38.420Z,11.28
2019-05-11T11:21:38.430Z,11.16
2019-05-11T11:22:43.631Z,11.29
2019-05-11T11:23:38.505Z,11.21
2019-05-11T11:24:38.234Z,11.19
2019-05-11T11:25:38.413Z,11.28
2019-05-11T11:26:38.579Z,11.27
2019-05-11T11:27:38.730Z,11.28
2019-05-11T11:28:38.890Z,11.25
2019-05-11T11:29:39.056Z,11.29
2019-05-11T11:30:39.207Z,11.25
2019-05-11T11:31:39.366Z,11.28
2019-05-11T11:32:39.514Z,11.27
2019-05-11T11:33:39.660Z,11.21
2019-05-11T11:34:39.827Z,11.21
2019-05-11T11:35:39.961Z,11.24
2019-05-11T11:36:40.143Z,11.27
2019-05-11T11:37:40.247Z,11.27
2019-05-11T11:38:40.429Z,11.21
2019-05-11T11:39:40.585Z,11.34
2019-05-11T11:40:42.812Z,11.24
2019-05-11T11:41:40.888Z,11.11
2019-05-11T11:42:41.048Z,11.21
2019-05-11T11:43:41.221Z,11.19
2019-05-11T11:44:41.373Z,11.31
2019-05-11T11:45:41.518Z,11.21
2019-05-11T11:46:52.182Z,11.17
2019-05-11T11:47:41.815Z,11.06
2019-05-11T11:48:41.964Z,11.13
2019-05-11T11:49:42.112Z,11.09
2019-05-11T11:50:42.260Z,11.02
2019-05-11T11:51:42.406Z,11.01
2019-05-11T11:52:45.076Z,11.02
2019-05-11T11:53:42.706Z,10.99
2019-05-11T11:54:42.852Z,10.98
2019-05-11T11:55:43.002Z,10.96
2019-05-11T11:56:43.151Z,10.86
2019-05-11T11:57:43.301Z,10.94
2019-05-11T11:58:43.451Z,10.94
2019-05-11T11:59:43.600Z,10.86
2019-05-11T12:00:43.751Z,10.95
2019-05-11T12:01:43.897Z,10.88
2019-05-11T12:02:44.044Z,10.86
2019-05-11T12:03:44.196Z,10.88
2019-05-11T12:04:44.344Z,10.91
2019-05-11T12:05:44.494Z,10.74
2019-05-11T12:06:44.641Z,10.76
2019-05-11T12:07:44.792Z,10.70
2019-05-11T12:08:44.952Z,10.74
2019-05-11T12:09:45.091Z,10.80
2019-05-11T12:10:45.239Z,10.84
2019-05-11T12:11:45.388Z,10.89
2019-05-11T12:12:47.509Z,10.86
2019-05-11T12:13:47.578Z,10.78
2019-05-11T12:14:48.061Z,10.83
2019-05-11T12:15:48.014Z,10.81
2019-05-11T12:16:47.952Z,10.83
2019-05-11T12:17:48.365Z,10.84
2019-05-11T12:18:48.410Z,10.98
2019-05-11T12:19:47.803Z,11.02
2019-05-11T12:20:48.068Z,10.95
2019-05-11T12:21:48.350Z,10.92
2019-05-11T12:22:47.613Z,10.98
2019-05-11T12:23:48.560Z,10.89
2019-05-11T12:24:48.152Z,10.89
2019-05-11T12:25:48.695Z,10.92
2019-05-11T12:26:48.205Z,10.80
2019-05-11T12:27:49.052Z,10.86
2019-05-11T12:28:48.996Z,10.86
2019-05-11T12:29:48.098Z,10.88
2019-05-11T12:30:48.336Z,10.91
2019-05-11T12:31:48.646Z,10.94
2019-05-11T12:32:48.907Z,10.98
2019-05-11T12:33:48.705Z,11.10
2019-05-11T12:34:48.866Z,11.13
2019-05-11T12:35:49.014Z,11.19
2019-05-11T12:36:49.162Z,11.19
2019-05-11T12:37:49.310Z,11.21
2019-05-11T12:38:49.460Z,11.19
2019-05-11T12:39:49.608Z,11.16
2019-05-11T12:40:49.763Z,11.27
2019-05-11T12:41:49.913Z,11.38
2019-05-11T12:42:50.060Z,11.20
2019-05-11T12:43:50.208Z,11.17
2019-05-11T12:44:50.357Z,11.21
2019-05-11T12:45:50.505Z,11.10
2019-05-11T12:46:50.655Z,10.99
2019-05-11T12:47:50.803Z,11.25
2019-05-11T12:48:50.952Z,11.21
2019-05-11T12:49:51.100Z,11.39
2019-05-11T12:50:51.249Z,11.24
2019-05-11T12:51:51.393Z,11.24
2019-05-11T12:52:51.546Z,11.01
2019-05-11T12:53:51.700Z,11.13
2019-05-11T12:54:51.843Z,11.21
2019-05-11T12:55:51.995Z,11.35
2019-05-11T12:56:52.142Z,11.25
2019-05-11T12:57:52.296Z,11.25
2019-05-11T12:58:52.444Z,11.43